Huvudsida
METAR-TAF:

METAR-TAF

Flygplatser :

Ramsar Airport

Ramsar, Iran

latitud: 36-54N, longitud: 050-40E, höjd: -23 m

Aktuellt väderrapport

Denna rapport gjordes för 1 timme och 13 minuter sedan, klockan 08:00 UTC
Vind 4 kt från nordost
Temperatur 21°C
Fuktighet 78%
Tryck 1015 hPa
Sikt 10 km eller mer
Få moln på en höjd av 3000 ft, Högtornande cumulus.
Spridda moln på en höjd av 10000 ft

METAR: OINR 210800Z 05004KT 9999 FEW030TCU SCT100 21/17 Q1015

Tid: 12:43 (09:13 UTC)


TAF: saknas

Aktuella väderrapporter och prognoser från 4000 flygplatser (METAR- och TAF-rapporter).

De tillgängliga stationerna syns som gula och röda prickar på kartan.

För musen över prickarna för att se namnen på stationerna.

Klicka sedan för att få väderrapporter och prognoser.

För att ändra kartan: Klicka på de gröna knapparna med ett svart kors på för att zooma in; den gröna knappen med ett streck på för att zooma ut; eller på de gröna pilarna för angränsande kartor.


METAR-TAF: